Estació municipal de Cercs - St.Jordi (Berguedà, )

Consulta les dades en temps real de l'estació municipal de Cercs - St.Jordi





Hora UTC 20:35
Temperatura 23.2 ºC
Humitat 70.2 %
Pressió 1024.3 hPa
Pluja 0.0 mm
Velocitat vent 2.0 km/h
Direcció vent SSW
Radiació solar 0.1 W/m²

Dades diàries 2026-09-03



Hora UTC (hivern +1h; estiu +2h)
Temperatura (ºC) Humitat (%) Pressió (hPa) Velocitat vent (km/h) Precipitació (mm) Radiació solar (W/m²)
Hora UTC Aire Humitat Pressió Vel. Dir. Vel. Max Dir. Intent. màx 5 min. Rad. Sol.
00:05 19.8 75.5 1024.4 0.3 S 0.3 S 0.0 0.1
00:10 19.6 76.4 1024.4 0.0 SW 3.4 SW 0.0 0.1
00:15 19.5 76.9 1024.3 0.0 NNE 0.0 SW 0.0 0.1
00:20 19.5 76.8 1024.3 0.0 NNE 0.0 SW 0.0 0.1
00:25 19.6 76.7 1024.3 1.9 ENE 6.1 ENE 0.0 0.1
00:30 19.7 76.1 1024.3 0.4 SSE 3.4 ENE 0.0 0.1
00:35 19.6 76.5 1024.3 0.2 W 3.4 SW 0.0 0.1
00:40 19.5 77.1 1024.3 2.1 WNW 6.1 WNW 0.0 0.1
00:45 19.5 76.9 1024.3 0.0 NNE 0.0 WNW 0.0 0.1
00:50 19.7 76.3 1024.3 2.5 ESE 6.1 ENE 0.0 0.1
00:55 19.5 76.8 1024.3 1.1 SSW 6.1 SSW 0.0 0.1
01:00 19.4 77.4 1024.2 0.0 NNE 0.0 SW 0.0 0.1
01:05 19.4 77.3 1024.2 0.0 NNE 0.0 ENE 0.0 0.1
01:10 19.4 77.0 1024.2 0.0 NNE 0.0 NNE 0.0 0.2
01:15 19.2 77.9 1024.2 0.0 NNE 0.0 SE 0.0 0.1
01:20 19.1 78.7 1024.2 0.0 NNE 0.0 SE 0.0 0.1
01:25 19.1 79.0 1024.2 0.0 NNE 0.0 SE 0.0 0.1
01:30 19.1 78.8 1024.2 0.3 NW 6.1 NW 0.0 0.1
01:35 19.2 78.2 1024.2 3.9 NW 11.5 NW 0.0 0.1
01:40 19.3 77.5 1024.2 3.2 NW 11.5 NW 0.0 0.1
01:45 19.4 77.1 1024.2 0.5 SSW 6.1 SSW 0.0 0.1
01:50 19.2 78.0 1024.1 0.0 NNE 0.0 SW 0.0 0.1
01:55 19.1 78.5 1024.1 0.0 NNE 0.0 SW 0.0 0.1
02:00 19.1 78.8 1024.1 0.0 NNE 0.0 NNE 0.0 0.2
02:05 19.0 79.1 1024.1 0.3 ESE 3.4 ESE 0.0 0.1
02:10 18.8 79.8 1024.1 1.1 WNW 6.1 N 0.0 0.2
02:15 18.9 79.7 1024.1 2.2 WNW 8.8 NE 0.0 0.1
02:20 19.1 78.4 1024.1 3.1 NNW 11.5 N 0.0 0.1
02:25 19.4 76.6 1024.1 3.5 N 14.2 NNE 0.0 0.1
02:30 19.5 76.5 1024.1 2.4 WNW 8.8 NW 0.0 0.1
02:35 19.4 77.0 1024.1 4.6 NW 14.2 NW 0.0 0.1
02:40 19.6 76.0 1024.1 5.2 NW 16.9 NW 0.0 0.1
02:45 19.7 75.3 1024.1 4.6 NW 8.8 ENE 0.0 0.1
02:50 19.6 75.9 1024.1 0.2 WSW 6.1 W 0.0 0.1
02:55 19.5 76.7 1024.1 0.0 NNE 0.0 WSW 0.0 0.1
03:00 19.3 77.3 1024.0 0.5 NNW 3.4 NE 0.0 0.1
03:05 19.1 78.2 1024.0 2.5 S 6.1 WNW 0.0 0.1
03:10 18.8 79.5 1024.0 1.7 S 6.1 S 0.0 0.1
03:15 18.7 80.5 1024.0 0.1 NNW 3.4 NNW 0.0 0.1
03:20 18.7 80.0 1023.9 1.2 NE 6.1 NNE 0.0 0.1
03:25 18.9 79.3 1023.9 0.2 S 3.4 SSW 0.0 0.1
03:30 18.6 80.5 1023.9 0.0 NNE 0.0 S 0.0 0.1
03:35 18.6 80.7 1023.9 0.3 NW 6.1 NNW 0.0 0.2
03:40 18.7 79.8 1023.8 2.1 N 8.8 NW 0.0 0.1
03:45 18.8 79.5 1023.8 1.6 WNW 6.1 N 0.0 0.1
03:50 18.6 80.1 1023.7 2.1 NW 8.8 NE 0.0 0.1
03:55 18.7 79.6 1023.7 1.2 NNW 6.1 NNE 0.0 0.1
04:00 18.6 80.1 1023.7 0.0 NNE 0.0 WNW 0.0 0.1
04:05 18.5 80.5 1023.7 0.2 N 3.4 ENE 0.0 0.1
04:10 18.4 80.7 1023.7 0.3 SSW 3.4 SSW 0.0 0.2
04:15 18.2 81.9 1023.7 0.0 SW 3.4 SW 0.0 0.1
04:20 18.4 81.5 1023.7 3.1 NE 8.8 NE 0.0 0.1
04:25 18.6 79.9 1023.6 2.4 N 6.1 NNW 0.0 0.1
04:30 18.6 79.6 1023.6 1.4 WNW 6.1 NE 0.0 0.1
04:35 18.4 80.8 1023.7 1.0 WNW 6.1 NW 0.0 0.1
04:40 18.3 81.6 1023.7 3.5 NNW 8.8 NNE 0.0 0.1
04:45 18.3 81.3 1023.8 4.4 NNW 14.2 NW 0.0 0.2
04:50 18.6 79.8 1023.8 3.8 NNW 11.5 NE 0.0 0.2
04:55 18.6 79.9 1023.8 0.4 N 6.1 N 0.0 0.3
05:00 18.6 79.4 1023.8 0.6 NNW 6.1 W 0.0 0.6
05:05 18.4 80.5 1023.8 0.0 NNE 0.0 NNW 0.0 1.1
05:10 18.3 81.2 1023.9 2.7 NNE 8.8 NNE 0.0 2.0
05:15 18.6 79.1 1023.9 1.3 NNE 6.1 N 0.0 3.0
05:20 18.5 79.9 1023.9 2.5 WNW 8.8 NNW 0.0 4.6
05:25 18.3 81.0 1024.0 0.3 W 3.4 W 0.0 6.3
05:30 18.3 81.4 1024.0 0.0 NNE 0.0 W 0.0 8.1
05:35 18.1 82.3 1024.0 0.0 NNE 0.0 NNW 0.0 9.3
05:40 18.2 81.8 1024.1 2.6 NNE 11.5 NE 0.0 11.1
05:45 18.2 80.9 1024.1 3.6 NNE 8.8 NE 0.0 12.9
05:50 18.2 81.1 1024.1 1.1 WSW 6.1 NNE 0.0 14.3
05:55 18.0 82.7 1024.1 0.8 W 6.1 W 0.0 16.4
06:00 18.0 82.8 1024.2 1.0 NE 6.1 N 0.0 18.8
06:05 18.3 81.5 1024.2 0.7 NNE 6.1 N 0.0 20.8
06:10 18.6 80.1 1024.2 0.9 NNE 6.1 NW 0.0 22.8
06:15 18.9 78.3 1024.2 4.7 NNE 14.2 N 0.0 24.3
06:20 19.1 78.8 1024.3 0.0 NNE 0.0 SW 0.0 25.4
06:25 19.1 79.0 1024.3 0.0 W 3.4 W 0.0 33.6
06:30 19.1 78.4 1024.2 0.0 NNE 0.0 NNW 0.0 29.4
06:35 19.2 78.4 1024.2 0.0 NNE 0.0 WNW 0.0 28.0
06:40 19.4 78.0 1024.2 0.0 NNE 0.0 WNW 0.0 28.9
06:45 19.5 77.5 1024.2 1.1 N 6.1 NNE 0.0 29.8
06:50 19.8 76.9 1024.2 1.1 NE 8.8 ENE 0.0 30.6
06:55 20.0 75.1 1024.2 2.5 NNE 8.8 NE 0.0 31.6
07:00 20.3 74.3 1024.2 3.0 NE 8.8 ENE 0.0 32.5
07:05 20.5 73.2 1024.2 4.5 NNE 14.2 NE 0.0 33.1
07:10 20.5 73.6 1024.2 2.0 NNE 8.8 NE 0.0 34.0
07:15 20.6 74.2 1024.2 0.4 NW 8.8 NNW 0.0 35.8
07:20 20.6 74.0 1024.1 3.0 NE 11.5 NNE 0.0 36.2
07:25 20.7 73.4 1024.1 2.7 NE 8.8 ENE 0.0 36.6
07:30 20.7 73.8 1024.1 3.0 ENE 8.8 NE 0.0 37.3
07:35 20.9 73.0 1024.1 5.0 NE 8.8 ENE 0.0 40.9
07:40 21.0 72.4 1024.1 4.5 NE 8.8 NE 0.0 39.2
07:45 21.2 72.0 1024.1 4.0 NE 8.8 NNE 0.0 39.7
07:50 21.5 70.9 1024.1 2.8 NE 8.8 NE 0.0 40.1
07:55 21.8 70.0 1024.1 1.2 ENE 8.8 E 0.0 41.3
08:00 22.1 69.2 1024.1 0.3 E 3.4 ENE 0.0 41.8
08:05 22.3 69.2 1024.1 1.5 SE 6.1 S 0.0 43.4
08:10 22.5 68.1 1024.1 1.0 E 6.1 SSE 0.0 56.6
08:15 22.7 67.8 1024.1 0.2 E 3.4 ESE 0.0 128.7
08:20 22.9 66.5 1024.1 0.0 NNE 0.0 NNE 0.0 186.4
08:25 23.2 64.4 1024.1 0.0 NNE 0.0 ENE 0.0 320.3
08:30 23.5 62.3 1024.2 0.0 NNE 0.0 NE 0.0 386.8
08:35 23.9 62.3 1024.2 0.9 SW 6.1 WSW 0.0 456.0
08:40 24.4 60.2 1024.3 0.5 S 6.1 S 0.0 487.9
08:45 24.9 57.4 1024.3 1.5 S 6.1 ESE 0.0 500.2
08:50 25.4 56.5 1024.3 3.7 SSE 8.8 SSW 0.0 512.8
08:55 25.9 54.9 1024.3 1.8 SE 11.5 S 0.0 523.7
09:00 26.6 52.3 1024.4 4.4 SSE 14.2 SSE 0.0 535.5
09:05 26.9 51.0 1024.4 2.8 SE 8.8 SE 0.0 545.6
09:10 27.2 50.0 1024.4 2.9 SE 11.5 SE 0.0 557.1
09:15 27.4 49.7 1024.4 3.2 SSE 11.5 ESE 0.0 566.4
09:20 27.4 50.3 1024.5 5.6 SSE 11.5 SE 0.0 575.4
09:25 27.6 49.8 1024.5 5.0 S 14.2 SSE 0.0 585.5
09:30 27.7 48.9 1024.5 6.0 SSE 16.9 SSE 0.0 593.8
09:35 27.9 48.6 1024.5 5.4 SSE 14.2 SSW 0.0 603.0
09:40 28.2 48.2 1024.4 5.1 SSE 14.2 SE 0.0 611.2
09:45 28.8 46.4 1024.5 4.6 ESE 14.2 SSE 0.0 620.6
09:50 28.9 45.0 1024.5 5.2 ESE 16.9 ESE 0.0 629.2
09:55 29.0 44.7 1024.5 3.8 ESE 11.5 SE 0.0 638.0
10:00 29.0 45.7 1024.5 3.6 SE 11.5 ENE 0.0 645.5
10:05 29.5 44.1 1024.5 4.5 SE 16.9 ESE 0.0 652.6
10:10 29.5 43.8 1024.4 4.1 SE 11.5 SE 0.0 659.2
10:15 29.5 44.2 1024.4 5.6 SE 16.9 SE 0.0 665.6
10:20 29.5 44.3 1024.3 2.4 SE 8.8 SSW 0.0 671.9
10:25 29.7 43.1 1024.2 3.0 SE 8.8 E 0.0 678.6
10:30 29.8 42.9 1024.1 3.9 ESE 11.5 ESE 0.0 684.4
10:35 29.8 43.0 1024.1 3.8 SE 14.2 ESE 0.0 687.7
10:40 30.0 42.8 1024.0 4.4 SSE 14.2 SSW 0.0 694.8
10:45 30.2 41.7 1024.0 4.9 ESE 16.9 ESE 0.0 699.0
10:50 30.4 40.9 1024.0 4.4 ESE 11.5 SE 0.0 702.5
10:55 30.7 40.9 1023.9 3.2 ESE 8.8 ESE 0.0 707.0
11:00 30.6 40.3 1023.8 4.2 ESE 11.5 E 0.0 710.2
11:05 30.2 41.5 1023.8 3.2 SE 11.5 ESE 0.0 713.5
11:10 30.5 40.8 1023.7 3.6 ESE 11.5 ESE 0.0 715.7
11:15 30.5 40.6 1023.6 3.1 ESE 11.5 ENE 0.0 719.0
11:20 30.5 40.5 1023.6 5.0 E 14.2 E 0.0 720.7
11:25 30.7 41.0 1023.5 3.3 ESE 11.5 SE 0.0 720.9
11:30 31.4 39.6 1023.5 4.0 ESE 11.5 ENE 0.0 723.3
11:35 31.8 38.3 1023.5 4.6 ESE 14.2 E 0.0 722.6
11:40 31.9 38.0 1023.5 2.7 ESE 8.8 ESE 0.0 722.5
11:45 31.6 37.9 1023.5 5.1 E 14.2 ENE 0.0 722.1
11:50 31.4 38.7 1023.4 3.5 ESE 11.5 NE 0.0 720.8
11:55 31.4 38.4 1023.4 1.8 ESE 8.8 SSE 0.0 721.4
12:00 31.4 38.3 1023.3 6.0 E 14.2 ENE 0.0 718.9
12:05 31.8 37.9 1023.3 4.8 ESE 14.2 SSE 0.0 718.1
12:10 32.0 37.0 1023.2 4.5 ESE 11.5 E 0.0 719.8
12:15 32.1 36.9 1023.2 5.3 E 11.5 SE 0.0 716.8
12:20 32.2 36.4 1023.2 5.9 ESE 16.9 SE 0.0 716.1
12:25 32.1 36.2 1023.1 5.9 ESE 16.9 ENE 0.0 714.5
12:30 32.1 36.5 1023.1 4.3 ESE 11.5 ENE 0.0 711.0
12:35 32.6 35.8 1023.0 4.4 E 14.2 ENE 0.0 708.4
12:40 32.6 35.1 1023.0 4.4 ESE 14.2 ENE 0.0 703.6
12:45 32.6 35.0 1023.0 6.6 SE 16.9 ESE 0.0 698.5
12:50 32.9 35.4 1023.0 5.4 SSE 16.9 SE 0.0 695.2
12:55 33.2 34.2 1022.9 4.8 ESE 14.2 ESE 0.0 693.1
13:00 33.4 33.8 1022.9 4.6 ESE 11.5 SE 0.0 686.9
13:05 33.2 33.8 1022.9 5.4 ESE 11.5 ENE 0.0 681.4
13:10 33.4 33.6 1022.8 4.1 ESE 14.2 SE 0.0 675.1
13:15 33.5 33.6 1022.8 5.2 ESE 14.2 ESE 0.0 671.5
13:20 33.3 33.4 1022.8 4.4 E 11.5 ENE 0.0 666.2
13:25 33.3 33.8 1022.8 4.6 ESE 11.5 ENE 0.0 662.2
13:30 33.5 33.5 1022.7 4.9 ESE 16.9 ESE 0.0 655.5
13:35 34.0 32.7 1022.7 5.0 ESE 14.2 ESE 0.0 647.3
13:40 34.0 32.5 1022.6 2.7 SE 11.5 ESE 0.0 625.4
13:45 34.2 32.5 1022.6 6.8 ESE 16.9 SSE 0.0 611.0
13:50 34.2 32.3 1022.5 3.7 ESE 11.5 ESE 0.0 621.1
13:55 34.5 31.8 1022.5 4.0 ESE 11.5 ESE 0.0 611.8
14:00 34.5 31.5 1022.4 3.8 ESE 8.8 ENE 0.0 605.6
14:05 34.3 31.4 1022.4 5.6 ESE 19.6 ESE 0.0 597.6
14:10 34.2 31.5 1022.4 5.0 SE 11.5 SSW 0.0 589.2
14:15 34.2 31.1 1022.3 3.2 ESE 14.2 SE 0.0 581.2
14:20 34.2 30.4 1022.2 4.4 E 11.5 SE 0.0 569.3
14:25 34.0 31.6 1022.2 6.1 SSE 14.2 SSE 0.0 558.7
14:30 34.4 30.4 1022.2 2.1 ESE 8.8 ENE 0.0 549.9
14:35 34.7 29.7 1022.2 4.8 ESE 11.5 SE 0.0 538.0
14:40 34.8 29.8 1022.2 5.6 ESE 11.5 SSE 0.0 526.4
14:45 35.0 29.6 1022.2 4.5 SSE 11.5 SE 0.0 513.4
14:50 35.0 29.9 1022.2 4.2 SE 14.2 ENE 0.0 505.1
14:55 35.0 29.4 1022.2 2.9 ESE 14.2 ESE 0.0 494.7
15:00 35.0 30.1 1022.1 5.6 SSE 19.6 SSW 0.0 483.9
15:05 34.8 30.3 1022.1 8.3 SE 27.7 SSE 0.0 471.5
15:10 34.7 31.1 1022.1 5.8 SE 19.6 ESE 0.0 456.6
15:15 34.5 31.2 1022.1 7.2 SE 16.9 SSE 0.0 444.7
15:20 34.4 31.9 1022.1 6.7 SSE 16.9 SSW 0.0 434.1
15:25 34.0 32.4 1022.0 9.0 SE 22.3 ESE 0.0 418.2
15:30 33.7 33.5 1022.0 6.2 SSE 14.2 ESE 0.0 408.5
15:35 33.8 33.4 1022.1 5.6 SSE 11.5 SSE 0.0 395.2
15:40 34.1 33.4 1022.1 6.1 SSE 11.5 SSW 0.0 379.5
15:45 33.7 33.6 1022.2 7.1 SSE 14.2 SSE 0.0 367.7
15:50 33.6 34.6 1022.2 8.5 SSE 25.0 SE 0.0 353.9
15:55 33.2 35.4 1022.2 8.9 SE 19.6 ESE 0.0 340.4
16:00 32.8 36.5 1022.2 8.5 SE 22.3 SE 0.0 321.3
16:05 32.5 37.3 1022.3 7.7 SE 16.9 SSE 0.0 306.9
16:10 32.4 37.9 1022.3 6.5 SSE 16.9 SSE 0.0 291.8
16:15 32.3 38.1 1022.3 5.4 SSE 11.5 SSW 0.0 277.3
16:20 32.1 38.8 1022.3 4.4 SE 14.2 ESE 0.0 264.1
16:25 32.1 38.8 1022.3 3.2 S 14.2 SSE 0.0 250.4
16:30 32.0 38.9 1022.4 5.4 SSE 14.2 SE 0.0 234.9
16:35 31.5 39.6 1022.4 5.5 SE 14.2 SE 0.0 219.0
16:40 31.2 40.5 1022.4 6.6 SE 16.9 ESE 0.0 196.0
16:45 31.1 40.9 1022.4 5.9 SE 14.2 SE 0.0 60.6
16:50 31.0 41.3 1022.5 4.2 SSE 11.5 ESE 0.0 60.2
16:55 30.6 42.2 1022.5 5.5 S 14.2 S 0.0 158.4
17:00 30.2 43.5 1022.5 4.7 SSE 11.5 SE 0.0 137.6
17:05 29.8 45.0 1022.5 3.0 S 8.8 SSW 0.0 47.1
17:10 29.3 46.4 1022.5 1.6 S 8.8 SE 0.0 31.6
17:15 28.8 48.5 1022.5 2.9 SW 8.8 SW 0.0 29.9
17:20 28.4 50.3 1022.5 1.8 SW 8.8 S 0.0 27.6
17:25 28.0 52.1 1022.5 0.4 SW 3.4 S 0.0 25.5
17:30 27.7 52.8 1022.5 1.6 SW 6.1 WSW 0.0 23.3
17:35 27.5 53.6 1022.6 3.2 WSW 6.1 W 0.0 21.0
17:40 27.1 55.0 1022.6 3.9 WSW 8.8 WNW 0.0 19.2
17:45 26.8 55.8 1022.7 3.7 WSW 8.8 WSW 0.0 17.0
17:50 26.7 56.3 1022.7 4.1 WSW 11.5 WSW 0.0 14.7
17:55 26.5 57.1 1022.8 3.4 SW 11.5 WSW 0.0 12.8
18:00 26.2 58.0 1022.8 5.9 WSW 11.5 SW 0.0 10.6
18:05 26.0 58.9 1022.8 6.4 WSW 11.5 WSW 0.0 8.3
18:10 26.0 59.1 1022.8 4.4 WSW 11.5 W 0.0 6.3
18:15 26.2 58.7 1022.8 3.7 SW 8.8 SW 0.0 4.4
18:20 26.0 59.4 1022.9 2.9 S 8.8 S 0.0 3.0
18:25 26.0 59.4 1023.0 1.5 S 6.1 S 0.0 1.8
18:30 25.9 59.8 1023.0 1.5 WSW 6.1 W 0.0 1.1
18:35 25.9 60.1 1023.1 3.3 W 8.8 SW 0.0 0.6
18:40 25.6 60.6 1023.1 3.7 WSW 8.8 WSW 0.0 0.3
18:45 25.4 61.2 1023.2 4.5 WSW 8.8 W 0.0 0.1
18:50 25.3 61.6 1023.2 3.1 SW 8.8 SW 0.0 0.2
18:55 25.2 62.0 1023.3 4.3 SW 8.8 SW 0.0 0.1
19:00 25.2 61.9 1023.3 3.1 WSW 8.8 SW 0.0 0.1
19:05 25.2 62.1 1023.4 3.7 W 8.8 WSW 0.0 0.1
19:10 25.1 62.3 1023.4 2.0 SW 6.1 WSW 0.0 0.1
19:15 25.1 62.4 1023.5 3.9 SW 8.8 SW 0.0 0.1
19:20 25.0 62.5 1023.6 1.6 SW 6.1 SW 0.0 0.1
19:25 24.9 63.2 1023.6 0.2 WSW 3.4 W 0.0 0.1
19:30 24.6 64.2 1023.7 2.5 SSW 6.1 SSW 0.0 0.1
19:35 24.5 64.6 1023.8 0.7 SSW 6.1 SSW 0.0 0.1
19:40 24.4 64.6 1023.8 2.7 SW 6.1 WSW 0.0 0.1
19:45 24.3 65.1 1023.8 3.5 WSW 8.8 SW 0.0 0.1
19:50 24.4 65.1 1023.9 2.8 WSW 6.1 WSW 0.0 0.1
19:55 24.4 65.0 1024.0 1.7 SSW 6.1 S 0.0 0.1
20:00 24.2 66.0 1024.1 3.5 WSW 8.8 S 0.0 0.1
20:05 24.0 66.9 1024.2 0.8 SW 6.1 WSW 0.0 0.2
20:10 23.8 67.4 1024.2 0.0 NNE 0.0 SW 0.0 0.1
20:15 23.7 67.7 1024.2 0.0 NNE 0.0 SSW 0.0 0.1
20:20 23.7 68.0 1024.3 0.5 S 6.1 S 0.0 0.1
20:25 23.6 68.3 1024.3 3.3 SSW 6.1 S 0.0 0.1
20:30 23.4 68.8 1024.2 0.0 NNE 0.0 S 0.0 0.1
20:35 23.2 70.2 1024.3 2.0 SSW 8.8 WSW 0.0 0.1
Màxima 35.0 82.8 1024.5 9.0 SE 27.7 SSE 0.0 723.3
Mínima 18.0 29.4 1022.0
Total 0.0